Aérodrome :
LOGIN :

S'inscrire | Disclaimer

   EN    FR    IT 

 










Légende :    VFR   VFR Marginal   IFR   IFR Intensif   IFR Très Intensif
Visi : 
Plafond : 
>= 8 km
>= 3000ft
5 à 8 km
1000 à 3000 ft
1500m à 5 km
500 à 1000 ft
800 à 1500m
200 à 500 ft
< 800m
< 200 ft
Symboles :   Orages  Brouillard  Fortes neiges  Fortes précipitations  Vent > 20 kt
SIGMETs :   Divers  Orages  Givrage  Turbulence  Onde Orograph.  Cendres Volcan.






- Altitude de l'aérodrome : 1585 ft
- Code IATA : SIR


LSGS - Sion

DERNIER METAR :
  • 182320Z AUTO 00000KT CAVOK 19/15 Q1022

METARs EXPIRÉS :
  • 182250Z AUTO 09003KT CAVOK 20/15 Q1021
  • 182220Z AUTO 08005KT CAVOK 20/15 Q1021
  • 182150Z AUTO 10004KT CAVOK 20/15 Q1021
  • 182120Z AUTO 09004KT CAVOK 21/15 Q1021
  • 182050Z AUTO VRB03KT CAVOK 21/14 Q1020
  • 182020Z AUTO 09005KT CAVOK 23/13 Q1020
  • 181950Z AUTO VRB01KT CAVOK 25/11 Q1020
  • 181920Z AUTO 28007KT 240V300 CAVOK 25/11 Q1019
  • 181850Z AUTO 30007KT 250V340 CAVOK 25/11 Q1019

TAF TAF LSGS
Valide du 18 à 15h jusqu'au 19 à 00h UTC


181425Z 1815/1824 26013KT 9999 FEW120
BECMG 1818/1820 VRB02KT



MET'MAP, la Météo Aéronautique d'un coup d'oeil ! - Copyright ORBIFLY Décembre 2007 - Disclaimer

ORBIFLY MET'MAP TEAM :

Programmation & Développement : Alexandra Zaïnal
Sur une idée originale de : Baudouin d'Aumeries
Soutien technique & logistique : Manuel Goepfert
Assistance : Marc-Olivier Méhu




SOURCES & CREDITS :

   NOAA